Search for airport 
image banner adimage banner adimage banner ad
image banner ad

KPJC - Zelienople Muni

Located in Zelienople, United States

ICAO - PJC, IATA -

Data provided by Airmate  

General information

Coordinates: N40°48'7" W80°9'39"
Elevation is 898 feet MSL.
Magnetic variation is -09° East
View others Airports in Pennsylvania

Operational data

Special qualification required
Current time UTC:
Current local time:
METAR: KBTP 091556Z AUTO 07010KT 10SM -RA OVC008 03/03 A2994 RMK AO2 CIG 005V011 SLP153 T00330028 PNO $
View NOTAMs / SUP AIP / TFR affecting this airport [VIEW]
Communications frequencies: [VIEW]

Runways:

RWY identifierQFULength (ft)Width (ft)SurfaceLDA (ft)
17165°493375ASPH4381
35345°493375ASPH4650

Airport contact information

Address: Zelienople United States

Other aviation service providers

Flight schools

Condor Aero Club

Condor Aero Club

Satellite view of KPJC